Time;durP1;ratioP1;P1;durP2;ratioP2;P2;SDS_P1;SDS_P2;PMS_P1;PMS_P2;Temp;Humidity;BMP_temperature;BMP_pressure;BME280_temperature;BME280_humidity;BME280_pressure;Samples;Min_cycle;Max_cycle;Signal;HPM_P1;HPM_P2
2022/05/04 00:00:49;;;;;;;17.17;10.45;;;;;;;;;;5000268;28;20188;-82
2022/05/04 00:03:15;;;;;;;13.55;8.77;;;;;;;;;;4985465;28;20182;-81
2022/05/04 00:05:41;;;;;;;16.35;10.70;;;;;;;;;;5000410;28;20183;-81
2022/05/04 00:08:07;;;;;;;13.52;9.77;;;;;;;;;;4985304;28;20219;-81
2022/05/04 00:10:34;;;;;;;14.15;10.65;;;;;;;;;;4985024;28;20198;-82
2022/05/04 00:13:01;;;;;;;15.15;10.63;;;;;;;;;;5000141;28;20203;-80
2022/05/04 00:15:28;;;;;;;15.77;12.10;;;;;;;;;;4984686;28;20171;-81
2022/05/04 00:17:54;;;;;;;14.48;10.65;;;;;;;;;;5002216;28;20226;-81
2022/05/04 00:20:20;;;;;;;17.73;10.38;;;;;;;;;;4985157;28;20193;-80
2022/05/04 00:22:46;;;;;;;17.17;10.52;;;;;;;;;;5001807;28;20195;-81
2022/05/04 00:25:13;;;;;;;19.95;12.10;;;;;;;;;;5003463;28;20687;-81
2022/05/04 00:27:39;;;;;;;15.48;11.02;;;;;;;;;;4986505;28;20214;-80
2022/05/04 00:30:06;;;;;;;14.18;10.70;;;;;;;;;;4988858;28;20186;-81
2022/05/04 00:32:32;;;;;;;16.48;11.40;;;;;;;;;;5003850;28;20187;-81
2022/05/04 00:34:58;;;;;;;17.33;11.00;;;;;;;;;;5003181;28;20183;-81
2022/05/04 00:37:25;;;;;;;13.05;9.88;;;;;;;;;;5003073;28;20191;-81
2022/05/04 00:39:51;;;;;;;21.45;12.10;;;;;;;;;;5003200;28;20204;-80
2022/05/04 00:42:18;;;;;;;17.45;12.98;;;;;;;;;;4988399;28;20191;-80
2022/05/04 00:44:46;;;;;;;18.73;12.35;;;;;;;;;;5005953;28;20659;-80
2022/05/04 00:47:12;;;;;;;15.95;10.77;;;;;;;;;;4988258;28;20215;-80
2022/05/04 00:49:39;;;;;;;12.35;9.50;;;;;;;;;;5003412;28;20187;-80
2022/05/04 00:52:05;;;;;;;14.68;11.00;;;;;;;;;;5002529;28;20202;-80
2022/05/04 00:54:32;;;;;;;17.38;10.60;;;;;;;;;;5004956;28;20190;-81
2022/05/04 00:56:59;;;;;;;17.08;10.70;;;;;;;;;;5005475;28;20210;-81
2022/05/04 00:59:25;;;;;;;16.10;11.02;;;;;;;;;;4988128;28;20206;-81
2022/05/04 01:01:52;;;;;;;15.13;10.35;;;;;;;;;;5002315;28;20202;-80
2022/05/04 01:04:18;;;;;;;18.92;11.18;;;;;;;;;;5002308;28;20187;-80
2022/05/04 01:06:46;;;;;;;16.08;11.93;;;;;;;;;;5003302;28;20242;-80
2022/05/04 01:09:12;;;;;;;18.85;12.07;;;;;;;;;;5005918;28;20175;-80
2022/05/04 01:11:38;;;;;;;18.52;11.10;;;;;;;;;;5004088;28;20207;-80
2022/05/04 01:14:06;;;;;;;19.67;11.85;;;;;;;;;;5002990;28;20183;-80
2022/05/04 01:16:33;;;;;;;17.40;11.52;;;;;;;;;;5002487;28;20369;-80
2022/05/04 01:18:59;;;;;;;14.10;10.30;;;;;;;;;;5002609;28;20186;-81
2022/05/04 01:21:25;;;;;;;18.60;12.30;;;;;;;;;;5005129;28;20210;-80
2022/05/04 01:23:52;;;;;;;15.90;11.73;;;;;;;;;;5004104;28;20183;-80
2022/05/04 01:26:18;;;;;;;16.92;11.02;;;;;;;;;;4987104;28;20659;-81
2022/05/04 01:28:45;;;;;;;17.08;11.27;;;;;;;;;;4994449;28;20281;-81
2022/05/04 01:31:11;;;;;;;18.05;11.38;;;;;;;;;;4987236;28;20206;-81
2022/05/04 01:33:37;;;;;;;16.20;10.77;;;;;;;;;;4999943;28;20185;-79
2022/05/04 01:36:03;;;;;;;15.52;11.13;;;;;;;;;;5005829;28;20242;-80
2022/05/04 01:38:29;;;;;;;17.65;11.00;;;;;;;;;;5002191;28;20246;-81
2022/05/04 01:40:55;;;;;;;18.60;12.68;;;;;;;;;;4985656;28;20191;-81
2022/05/04 01:43:21;;;;;;;15.50;9.80;;;;;;;;;;5000178;28;20198;-81
2022/05/04 01:45:47;;;;;;;16.48;11.10;;;;;;;;;;4992595;28;20533;-80
2022/05/04 01:48:13;;;;;;;16.75;10.73;;;;;;;;;;5004887;28;20175;-80
2022/05/04 01:50:39;;;;;;;17.83;11.50;;;;;;;;;;4987461;28;20175;-80
2022/05/04 01:53:06;;;;;;;15.10;11.43;;;;;;;;;;5002366;28;20449;-81
2022/05/04 01:55:33;;;;;;;20.45;12.48;;;;;;;;;;5002027;28;20430;-80
2022/05/04 01:57:59;;;;;;;14.40;11.57;;;;;;;;;;5001437;28;20646;-81
2022/05/04 02:00:25;;;;;;;19.48;12.27;;;;;;;;;;4986776;28;20199;-80
2022/05/04 02:02:52;;;;;;;16.85;10.70;;;;;;;;;;5002909;28;20194;-81
2022/05/04 02:05:18;;;;;;;17.05;10.98;;;;;;;;;;4986465;28;20270;-81
2022/05/04 02:07:44;;;;;;;18.35;11.45;;;;;;;;;;5001656;28;20211;-80
2022/05/04 02:10:11;;;;;;;17.73;12.55;;;;;;;;;;4987417;28;20190;-81
2022/05/04 02:12:37;;;;;;;18.95;13.07;;;;;;;;;;5002462;28;20198;-80
2022/05/04 02:15:04;;;;;;;18.63;11.23;;;;;;;;;;4972700;28;20180;-81
2022/05/04 02:17:30;;;;;;;17.70;11.63;;;;;;;;;;5000082;28;20226;-81
2022/05/04 02:19:56;;;;;;;17.30;11.50;;;;;;;;;;5001265;28;20213;-80
2022/05/04 02:22:22;;;;;;;16.30;11.63;;;;;;;;;;5000956;28;20210;-80
2022/05/04 02:24:48;;;;;;;16.00;10.93;;;;;;;;;;5001622;28;20263;-81
2022/05/04 02:27:14;;;;;;;20.50;13.70;;;;;;;;;;5004494;28;20512;-80
2022/05/04 02:29:40;;;;;;;17.50;12.23;;;;;;;;;;5002015;28;20205;-81
2022/05/04 02:32:07;;;;;;;23.77;12.63;;;;;;;;;;5000872;28;20846;-81
2022/05/04 02:34:33;;;;;;;15.82;11.35;;;;;;;;;;5000653;28;20186;-81
2022/05/04 02:39:43;;;;;;;21.70;12.50;;;;;;;;;;4986447;28;20205;-80
2022/05/04 02:42:10;;;;;;;17.20;11.37;;;;;;;;;;5004292;28;20183;-81
2022/05/04 02:44:36;;;;;;;19.00;12.27;;;;;;;;;;5001077;28;20534;-81
2022/05/04 02:47:02;;;;;;;19.17;13.10;;;;;;;;;;5000943;28;20675;-81
2022/05/04 02:49:28;;;;;;;18.38;12.48;;;;;;;;;;5000799;28;20182;-81
2022/05/04 02:51:54;;;;;;;15.77;10.37;;;;;;;;;;4981724;28;20203;-81
2022/05/04 02:54:20;;;;;;;20.07;12.10;;;;;;;;;;4986289;28;20414;-81
2022/05/04 02:56:46;;;;;;;18.50;10.87;;;;;;;;;;5002168;28;20430;-81
2022/05/04 02:59:12;;;;;;;21.50;14.13;;;;;;;;;;4986003;28;20510;-81
2022/05/04 03:04:30;;;;;;;18.73;12.35;;;;;;;;;;5000235;28;20456;-81
2022/05/04 03:06:56;;;;;;;17.47;12.00;;;;;;;;;;5000763;28;20301;-81
2022/05/04 03:09:22;;;;;;;19.20;12.10;;;;;;;;;;5002938;28;20728;-81
2022/05/04 03:11:54;;;;;;;19.17;12.43;;;;;;;;;;4986011;28;20427;-81
2022/05/04 03:14:20;;;;;;;19.00;13.07;;;;;;;;;;5000532;28;20256;-81
2022/05/04 03:16:47;;;;;;;18.63;14.45;;;;;;;;;;4998822;28;20230;-80
2022/05/04 03:19:13;;;;;;;18.65;12.82;;;;;;;;;;5000386;28;20187;-81
2022/05/04 03:21:40;;;;;;;16.70;12.38;;;;;;;;;;5001159;28;20218;-81
2022/05/04 03:24:06;;;;;;;21.92;13.20;;;;;;;;;;4999723;28;20211;-81
2022/05/04 03:26:32;;;;;;;23.48;12.90;;;;;;;;;;4995010;28;20298;-81
2022/05/04 03:28:58;;;;;;;21.08;13.52;;;;;;;;;;5000865;28;20581;-81
2022/05/04 03:31:24;;;;;;;21.15;13.35;;;;;;;;;;4985467;28;20676;-81
2022/05/04 03:33:50;;;;;;;20.45;14.75;;;;;;;;;;5000331;28;20215;-81
2022/05/04 03:36:17;;;;;;;22.08;12.63;;;;;;;;;;5003607;28;20183;-81
2022/05/04 03:38:46;;;;;;;19.02;13.40;;;;;;;;;;4972360;28;20207;-82
2022/05/04 03:41:12;;;;;;;20.95;12.60;;;;;;;;;;4996566;28;20203;-81
2022/05/04 03:43:38;;;;;;;18.42;12.55;;;;;;;;;;4985225;28;20183;-81
2022/05/04 03:46:18;;;;;;;20.77;12.10;;;;;;;;;;4981596;28;20993;-81
2022/05/04 03:48:44;;;;;;;19.02;13.20;;;;;;;;;;4999729;28;20207;-80
2022/05/04 03:51:11;;;;;;;21.95;13.38;;;;;;;;;;4986471;28;20183;-81
2022/05/04 03:53:37;;;;;;;19.45;13.82;;;;;;;;;;5000880;28;20646;-81
2022/05/04 03:56:03;;;;;;;18.98;13.15;;;;;;;;;;4985212;28;20676;-80
2022/05/04 03:58:29;;;;;;;24.58;12.90;;;;;;;;;;5003495;28;20191;-81
2022/05/04 04:00:55;;;;;;;19.85;12.57;;;;;;;;;;5004298;28;20638;-81
2022/05/04 04:03:21;;;;;;;20.83;13.85;;;;;;;;;;5004953;28;20178;-81
2022/05/04 04:05:47;;;;;;;20.50;12.27;;;;;;;;;;5004742;28;20175;-80
2022/05/04 04:08:13;;;;;;;21.60;13.65;;;;;;;;;;4986484;28;20547;-81
2022/05/04 04:10:39;;;;;;;20.70;11.37;;;;;;;;;;4989382;28;20187;-81
2022/05/04 04:13:08;;;;;;;21.50;12.77;;;;;;;;;;4988322;28;20438;-81
2022/05/04 04:15:35;;;;;;;18.63;13.20;;;;;;;;;;4986778;28;20521;-81
2022/05/04 04:18:00;;;;;;;17.80;11.77;;;;;;;;;;5006731;28;20194;-81
2022/05/04 04:23:11;;;;;;;23.27;12.90;;;;;;;;;;5003781;28;20658;-80
2022/05/04 04:25:38;;;;;;;18.30;12.32;;;;;;;;;;5003927;28;20203;-81
2022/05/04 04:28:04;;;;;;;21.25;12.27;;;;;;;;;;5003457;28;20627;-80
2022/05/04 04:30:30;;;;;;;24.70;14.50;;;;;;;;;;4987944;28;20573;-81
2022/05/04 04:32:56;;;;;;;19.60;12.90;;;;;;;;;;4974537;28;20591;-81
2022/05/04 04:35:22;;;;;;;18.27;12.70;;;;;;;;;;5001651;28;20210;-81
2022/05/04 04:37:48;;;;;;;21.05;13.75;;;;;;;;;;4988699;28;20215;-82
2022/05/04 04:40:14;;;;;;;18.30;11.95;;;;;;;;;;4988638;28;20191;-83
2022/05/04 04:42:40;;;;;;;20.80;14.52;;;;;;;;;;5002794;28;20650;-81
2022/05/04 04:45:07;;;;;;;20.08;12.45;;;;;;;;;;5007241;28;20187;-80
2022/05/04 04:47:33;;;;;;;21.13;12.60;;;;;;;;;;5003095;28;20207;-81
2022/05/04 04:49:59;;;;;;;23.25;12.60;;;;;;;;;;5003215;28;20772;-81
2022/05/04 04:52:25;;;;;;;22.67;13.05;;;;;;;;;;4988520;28;20656;-81
2022/05/04 04:54:51;;;;;;;17.63;13.32;;;;;;;;;;4986533;28;20194;-81
2022/05/04 04:57:17;;;;;;;18.70;12.48;;;;;;;;;;4988009;28;20187;-81
2022/05/04 04:59:43;;;;;;;22.15;12.93;;;;;;;;;;5004095;28;20183;-81
2022/05/04 05:02:09;;;;;;;23.88;13.93;;;;;;;;;;4988101;28;20190;-81
2022/05/04 05:04:35;;;;;;;17.80;11.98;;;;;;;;;;4987753;28;20187;-82
2022/05/04 05:07:01;;;;;;;18.80;12.60;;;;;;;;;;5003135;28;20218;-81
2022/05/04 05:09:27;;;;;;;19.08;12.30;;;;;;;;;;4987454;28;20870;-81
2022/05/04 05:11:53;;;;;;;21.60;13.43;;;;;;;;;;4999351;28;20188;-81
2022/05/04 05:17:05;;;;;;;20.83;12.10;;;;;;;;;;4998375;28;20504;-81
2022/05/04 05:19:31;;;;;;;22.02;11.88;;;;;;;;;;5002505;28;20187;-81
2022/05/04 05:21:57;;;;;;;25.10;13.38;;;;;;;;;;4983842;28;20184;-81
2022/05/04 05:24:22;;;;;;;20.90;12.73;;;;;;;;;;4987568;28;20273;-81
2022/05/04 05:26:48;;;;;;;19.33;14.00;;;;;;;;;;5003405;28;20462;-81
2022/05/04 05:29:14;;;;;;;21.03;12.67;;;;;;;;;;4987551;28;20438;-81
2022/05/04 05:31:40;;;;;;;23.60;12.77;;;;;;;;;;5002681;28;20434;-81
2022/05/04 05:34:06;;;;;;;29.80;13.57;;;;;;;;;;5002042;28;20505;-81
2022/05/04 05:36:32;;;;;;;19.13;12.93;;;;;;;;;;5004313;28;20426;-82
2022/05/04 05:38:58;;;;;;;19.70;12.70;;;;;;;;;;5005270;28;20175;-82
2022/05/04 05:41:25;;;;;;;18.98;12.07;;;;;;;;;;5001781;28;20438;-81
2022/05/04 05:43:52;;;;;;;21.88;13.18;;;;;;;;;;4987455;28;20302;-81
2022/05/04 05:46:18;;;;;;;22.60;13.27;;;;;;;;;;5001133;28;20202;-82
2022/05/04 05:48:47;;;;;;;19.98;13.77;;;;;;;;;;5002651;28;20182;-81
2022/05/04 05:51:13;;;;;;;26.08;13.52;;;;;;;;;;5006683;28;20167;-81
2022/05/04 05:53:39;;;;;;;19.25;12.55;;;;;;;;;;5002286;28;20179;-81
2022/05/04 05:56:05;;;;;;;19.75;12.65;;;;;;;;;;5001693;28;20199;-80
2022/05/04 05:58:31;;;;;;;25.77;13.95;;;;;;;;;;4983924;28;20207;-81
2022/05/04 06:00:57;;;;;;;27.45;14.15;;;;;;;;;;4986035;28;20191;-81
2022/05/04 06:03:23;;;;;;;20.15;12.90;;;;;;;;;;4986932;28;20199;-81
2022/05/04 06:05:49;;;;;;;17.70;12.60;;;;;;;;;;5003076;28;20172;-82
2022/05/04 06:08:15;;;;;;;20.58;11.70;;;;;;;;;;4987341;28;20251;-81
2022/05/04 06:10:41;;;;;;;19.33;12.02;;;;;;;;;;4986821;28;20178;-82
2022/05/04 06:13:08;;;;;;;17.15;12.88;;;;;;;;;;5001540;28;20183;-80
2022/05/04 06:15:34;;;;;;;22.08;12.52;;;;;;;;;;5003536;28;20214;-81
2022/05/04 06:18:01;;;;;;;23.58;12.05;;;;;;;;;;4979135;28;20325;-81
2022/05/04 06:20:27;;;;;;;21.30;12.13;;;;;;;;;;5001195;28;20191;-82
2022/05/04 06:22:53;;;;;;;19.83;13.00;;;;;;;;;;4982500;28;20190;-81
2022/05/04 06:25:19;;;;;;;18.48;13.93;;;;;;;;;;5001100;28;20270;-80
2022/05/04 06:27:45;;;;;;;24.88;13.65;;;;;;;;;;4984453;28;20247;-80
2022/05/04 06:35:41;;;;;;;18.77;12.38;;;;;;;;;;5003276;28;20206;-81
2022/05/04 06:38:07;;;;;;;21.40;13.88;;;;;;;;;;5001204;28;20194;-81
2022/05/04 06:40:33;;;;;;;19.77;12.73;;;;;;;;;;4986305;28;20187;-80
2022/05/04 06:42:59;;;;;;;21.63;12.77;;;;;;;;;;5000923;28;20179;-81
2022/05/04 06:45:25;;;;;;;25.00;12.95;;;;;;;;;;5003739;28;20407;-81
2022/05/04 06:47:51;;;;;;;21.85;13.05;;;;;;;;;;5003129;28;20202;-81
2022/05/04 06:50:18;;;;;;;24.90;13.33;;;;;;;;;;5001193;28;20660;-82
2022/05/04 06:52:44;;;;;;;21.92;12.30;;;;;;;;;;4985482;28;20445;-81
2022/05/04 06:55:10;;;;;;;23.08;13.43;;;;;;;;;;5001416;28;20205;-81
2022/05/04 06:57:36;;;;;;;23.00;13.18;;;;;;;;;;5001871;28;20200;-81
2022/05/04 07:00:04;;;;;;;21.52;13.35;;;;;;;;;;4972456;28;20211;-81
2022/05/04 07:02:31;;;;;;;20.17;12.77;;;;;;;;;;4999890;28;20182;-81
2022/05/04 07:04:57;;;;;;;20.20;12.85;;;;;;;;;;5001715;28;20240;-81
2022/05/04 07:07:23;;;;;;;24.23;14.33;;;;;;;;;;5000590;28;20277;-80
2022/05/04 07:09:49;;;;;;;18.47;11.50;;;;;;;;;;5002632;28;20446;-80
2022/05/04 07:12:15;;;;;;;18.90;13.30;;;;;;;;;;4986633;28;20442;-80
2022/05/04 07:14:41;;;;;;;21.17;12.90;;;;;;;;;;5000796;28;20773;-81
2022/05/04 07:17:07;;;;;;;23.20;13.70;;;;;;;;;;5000398;28;20484;-80
2022/05/04 07:19:33;;;;;;;22.48;13.15;;;;;;;;;;4985762;28;20461;-82
2022/05/04 07:21:59;;;;;;;18.58;12.20;;;;;;;;;;4981905;28;20179;-82
2022/05/04 07:24:25;;;;;;;22.40;12.00;;;;;;;;;;4985455;28;20183;-82
2022/05/04 07:26:51;;;;;;;26.60;15.02;;;;;;;;;;4986452;28;20462;-81
2022/05/04 07:29:18;;;;;;;23.63;13.90;;;;;;;;;;5002281;28;20191;-80
2022/05/04 07:31:44;;;;;;;22.77;14.13;;;;;;;;;;5001234;28;20178;-81
2022/05/04 07:34:10;;;;;;;18.27;12.98;;;;;;;;;;4989866;28;20213;-82
2022/05/04 07:36:36;;;;;;;24.85;13.82;;;;;;;;;;4988061;28;20183;-80
2022/05/04 07:39:02;;;;;;;19.50;13.30;;;;;;;;;;5007639;28;20193;-81
2022/05/04 07:44:13;;;;;;;22.85;14.30;;;;;;;;;;5004327;28;20610;-82
2022/05/04 07:46:39;;;;;;;25.77;13.48;;;;;;;;;;4989986;28;20202;-82
2022/05/04 07:49:07;;;;;;;25.27;12.43;;;;;;;;;;4989479;28;20187;-82
2022/05/04 07:51:33;;;;;;;24.88;14.77;;;;;;;;;;4988173;28;20178;-81
2022/05/04 07:53:59;;;;;;;21.73;13.00;;;;;;;;;;5007845;28;20219;-82
2022/05/04 07:56:25;;;;;;;19.65;13.00;;;;;;;;;;5004557;28;20445;-81
2022/05/04 07:58:51;;;;;;;24.87;15.40;;;;;;;;;;5004364;28;20205;-82
2022/05/04 08:04:16;;;;;;;27.73;15.55;;;;;;;;;;5003759;28;20478;-84
2022/05/04 08:06:42;;;;;;;21.50;13.52;;;;;;;;;;4996715;28;20719;-81
2022/05/04 08:09:08;;;;;;;21.08;11.77;;;;;;;;;;4975068;28;20175;-81
2022/05/04 08:11:34;;;;;;;23.50;15.75;;;;;;;;;;5003465;28;20326;-81
2022/05/04 08:14:00;;;;;;;21.57;12.50;;;;;;;;;;4988923;28;20187;-81
2022/05/04 08:16:26;;;;;;;26.10;14.40;;;;;;;;;;4986344;28;20496;-81
2022/05/04 08:18:52;;;;;;;24.02;14.65;;;;;;;;;;5003942;28;20187;-80
2022/05/04 08:21:18;;;;;;;24.90;13.77;;;;;;;;;;4989191;28;20171;-82
2022/05/04 08:23:44;;;;;;;25.15;15.07;;;;;;;;;;5004376;28;20198;-82
2022/05/04 08:26:12;;;;;;;24.47;16.37;;;;;;;;;;5003971;28;20215;-81
2022/05/04 08:28:38;;;;;;;23.23;14.93;;;;;;;;;;5003333;28;20467;-82
2022/05/04 08:31:05;;;;;;;24.42;13.65;;;;;;;;;;4988368;28;20208;-82
2022/05/04 08:33:31;;;;;;;22.67;15.38;;;;;;;;;;5005117;28;20294;-82
2022/05/04 08:35:57;;;;;;;23.90;13.87;;;;;;;;;;5005352;28;20178;-82
2022/05/04 08:38:23;;;;;;;25.70;13.80;;;;;;;;;;5003498;28;20445;-81
2022/05/04 08:40:52;;;;;;;24.17;14.43;;;;;;;;;;5003310;28;20445;-81
2022/05/04 08:43:20;;;;;;;31.73;16.20;;;;;;;;;;4987741;28;20544;-81
2022/05/04 08:45:51;;;;;;;27.70;14.90;;;;;;;;;;4986347;28;20184;-82
2022/05/04 08:48:18;;;;;;;24.85;15.50;;;;;;;;;;4988862;28;20239;-80
2022/05/04 08:50:44;;;;;;;27.90;14.35;;;;;;;;;;4975248;28;20183;-82
2022/05/04 08:53:10;;;;;;;27.10;16.40;;;;;;;;;;4999586;28;20188;-83
2022/05/04 08:55:38;;;;;;;23.55;15.57;;;;;;;;;;5002765;28;20179;-81
2022/05/04 08:58:04;;;;;;;30.17;15.88;;;;;;;;;;5003196;28;20187;-84
2022/05/04 09:00:30;;;;;;;28.77;14.80;;;;;;;;;;5004721;28;20183;-81
2022/05/04 09:02:56;;;;;;;28.90;15.45;;;;;;;;;;4973911;28;20176;-81
2022/05/04 09:05:24;;;;;;;29.83;16.13;;;;;;;;;;4990853;28;20238;-82
2022/05/04 09:07:51;;;;;;;26.92;16.65;;;;;;;;;;4986146;28;20458;-80
2022/05/04 09:10:26;;;;;;;26.77;15.35;;;;;;;;;;4988175;28;20512;-80
2022/05/04 09:12:54;;;;;;;28.88;16.65;;;;;;;;;;5002605;28;20184;-80
2022/05/04 09:15:20;;;;;;;24.88;15.43;;;;;;;;;;5005235;28;20183;-80
2022/05/04 09:17:46;;;;;;;24.80;14.48;;;;;;;;;;4987775;28;20233;-81
2022/05/04 09:22:57;;;;;;;24.77;15.07;;;;;;;;;;4996073;28;20198;-81
2022/05/04 09:25:24;;;;;;;23.70;15.55;;;;;;;;;;4987979;28;20197;-80
2022/05/04 09:27:51;;;;;;;25.98;15.82;;;;;;;;;;5002934;28;20215;-81
2022/05/04 09:30:23;;;;;;;23.98;14.52;;;;;;;;;;5005681;28;20202;-81
2022/05/04 09:32:50;;;;;;;21.05;14.35;;;;;;;;;;4987579;28;20181;-82
2022/05/04 09:35:16;;;;;;;19.88;14.82;;;;;;;;;;4984307;28;20305;-81
2022/05/04 09:46:03;;;;;;;25.80;15.73;;;;;;;;;;4990709;28;20217;-83
2022/05/04 09:48:30;;;;;;;18.05;13.52;;;;;;;;;;4987546;28;20548;-82
2022/05/04 09:51:04;;;;;;;20.35;12.13;;;;;;;;;;4986388;28;20175;-82
2022/05/04 09:53:30;;;;;;;17.38;11.52;;;;;;;;;;5002665;28;20221;-80
2022/05/04 09:55:57;;;;;;;15.75;11.30;;;;;;;;;;4986102;28;20179;-81
2022/05/04 09:58:23;;;;;;;15.40;9.07;;;;;;;;;;4986912;28;20179;-82
2022/05/04 10:00:51;;;;;;;13.00;10.07;;;;;;;;;;4976913;28;20219;-81
2022/05/04 10:03:18;;;;;;;11.65;9.60;;;;;;;;;;4987910;28;20171;-82
2022/05/04 10:05:45;;;;;;;17.42;11.15;;;;;;;;;;4976745;28;20182;-81
2022/05/04 10:08:11;;;;;;;18.58;10.65;;;;;;;;;;4984336;28;20183;-79
2022/05/04 10:10:37;;;;;;;13.38;9.73;;;;;;;;;;4984565;28;20191;-80
2022/05/04 10:13:04;;;;;;;13.68;9.80;;;;;;;;;;4986205;28;20183;-85
2022/05/04 10:15:31;;;;;;;18.45;10.02;;;;;;;;;;5003517;28;20175;-81
2022/05/04 10:18:08;;;;;;;16.13;9.13;;;;;;;;;;4972914;28;20176;-83
2022/05/04 10:20:34;;;;;;;13.38;8.75;;;;;;;;;;4989250;28;20202;-81
2022/05/04 10:23:00;;;;;;;11.13;8.68;;;;;;;;;;4988857;28;20191;-80
2022/05/04 10:25:26;;;;;;;12.15;8.88;;;;;;;;;;4991397;28;20194;-80
2022/05/04 10:28:04;;;;;;;14.05;7.70;;;;;;;;;;4985856;28;20278;-81
2022/05/04 10:30:30;;;;;;;12.18;8.05;;;;;;;;;;5003177;28;20178;-82
2022/05/04 10:33:05;;;;;;;12.60;8.98;;;;;;;;;;5003402;28;20178;-83
2022/05/04 10:35:44;;;;;;;12.40;8.40;;;;;;;;;;4985555;28;20241;-81
2022/05/04 10:38:29;;;;;;;17.67;9.65;;;;;;;;;;4983788;28;20209;-85
2022/05/04 10:40:55;;;;;;;16.65;9.30;;;;;;;;;;4979349;28;20210;-82
2022/05/04 10:43:36;;;;;;;13.90;8.40;;;;;;;;;;4986250;28;20190;-81
2022/05/04 10:46:05;;;;;;;18.20;10.23;;;;;;;;;;5000871;28;20176;-81
2022/05/04 10:48:31;;;;;;;14.75;9.20;;;;;;;;;;4985334;28;20175;-81
2022/05/04 10:51:05;;;;;;;10.73;8.20;;;;;;;;;;5003145;28;20235;-83
2022/05/04 10:53:36;;;;;;;14.35;7.60;;;;;;;;;;5001279;28;20194;-81
2022/05/04 10:56:02;;;;;;;9.50;6.50;;;;;;;;;;5000805;28;20261;-82
2022/05/04 10:58:32;;;;;;;10.13;6.43;;;;;;;;;;5000889;28;20261;-86
2022/05/04 11:01:02;;;;;;;6.30;5.60;;;;;;;;;;4984444;28;20443;-82
2022/05/04 11:03:32;;;;;;;6.63;5.90;;;;;;;;;;4985762;28;20529;-82
2022/05/04 11:05:59;;;;;;;10.48;6.53;;;;;;;;;;5001138;28;20167;-82
2022/05/04 11:08:25;;;;;;;8.82;6.43;;;;;;;;;;5000993;28;20242;-81
2022/05/04 11:10:52;;;;;;;6.93;5.05;;;;;;;;;;4985712;28;20338;-81
2022/05/04 11:13:19;;;;;;;9.52;5.68;;;;;;;;;;4985518;28;20183;-82
2022/05/04 11:15:53;;;;;;;6.10;5.10;;;;;;;;;;5000686;28;20272;-80
2022/05/04 11:18:20;;;;;;;12.55;5.88;;;;;;;;;;4997160;28;20547;-81
2022/05/04 11:20:46;;;;;;;5.75;4.80;;;;;;;;;;4985092;28;20182;-83
2022/05/04 11:23:13;;;;;;;7.85;5.50;;;;;;;;;;4983167;28;20190;-81
2022/05/04 11:25:38;;;;;;;6.93;5.15;;;;;;;;;;4999941;28;20183;-83
2022/05/04 11:28:05;;;;;;;18.90;5.87;;;;;;;;;;4976099;28;20334;-85
2022/05/04 11:30:31;;;;;;;6.00;4.82;;;;;;;;;;4983731;28;20435;-85
2022/05/04 11:32:57;;;;;;;8.43;5.65;;;;;;;;;;5001852;28;20179;-85
2022/05/04 11:35:25;;;;;;;8.20;5.87;;;;;;;;;;4998960;28;20672;-83
2022/05/04 11:37:51;;;;;;;6.90;5.15;;;;;;;;;;4979770;28;20447;-85
2022/05/04 11:40:17;;;;;;;5.70;5.03;;;;;;;;;;4984949;28;20652;-82
2022/05/04 11:42:46;;;;;;;9.95;6.25;;;;;;;;;;5000194;28;20199;-83
2022/05/04 11:45:13;;;;;;;8.38;5.63;;;;;;;;;;4983121;28;20660;-83
2022/05/04 11:47:39;;;;;;;7.03;4.50;;;;;;;;;;4995944;28;20204;-85
2022/05/04 11:50:06;;;;;;;6.50;4.57;;;;;;;;;;5001868;28;20192;-84
2022/05/04 11:52:32;;;;;;;9.10;5.90;;;;;;;;;;4985364;28;20179;-87
2022/05/04 11:55:04;;;;;;;6.10;5.50;;;;;;;;;;4997931;28;20192;-82
2022/05/04 11:57:32;;;;;;;7.60;6.22;;;;;;;;;;4993339;28;20569;-82
2022/05/04 11:59:58;;;;;;;6.93;5.40;;;;;;;;;;4986122;28;20172;-86
2022/05/04 12:02:24;;;;;;;6.67;4.87;;;;;;;;;;5000303;28;20195;-84
2022/05/04 12:04:50;;;;;;;5.30;4.80;;;;;;;;;;4983127;28;20448;-88
2022/05/04 12:07:17;;;;;;;5.75;4.80;;;;;;;;;;4982545;28;20218;-83
2022/05/04 12:09:43;;;;;;;5.93;4.73;;;;;;;;;;4982789;28;20194;-84
2022/05/04 12:12:09;;;;;;;6.00;4.43;;;;;;;;;;4992846;28;20436;-84
2022/05/04 12:14:35;;;;;;;4.40;4.00;;;;;;;;;;4993282;28;20435;-85
2022/05/04 12:17:01;;;;;;;5.13;3.38;;;;;;;;;;4998914;28;20465;-82
2022/05/04 12:19:29;;;;;;;3.40;3.10;;;;;;;;;;5003210;28;20194;-89
2022/05/04 12:21:56;;;;;;;4.67;3.03;;;;;;;;;;4987192;28;20439;-83
2022/05/04 12:24:23;;;;;;;3.70;3.30;;;;;;;;;;5005905;28;20418;-83
2022/05/04 12:26:49;;;;;;;5.30;3.10;;;;;;;;;;4995381;28;20458;-83
2022/05/04 12:34:48;;;;;;;5.30;3.27;;;;;;;;;;4999987;28;20459;-82
2022/05/04 12:37:15;;;;;;;2.70;2.50;;;;;;;;;;4979589;28;20511;-82
2022/05/04 12:39:43;;;;;;;6.77;2.90;;;;;;;;;;4972665;28;20907;-81
2022/05/04 12:42:09;;;;;;;3.60;3.30;;;;;;;;;;5006461;28;20396;-85
2022/05/04 12:44:35;;;;;;;3.90;3.50;;;;;;;;;;5003153;28;20434;-81
2022/05/04 12:47:02;;;;;;;3.67;3.30;;;;;;;;;;5002294;28;20459;-81
2022/05/04 12:49:28;;;;;;;5.70;3.60;;;;;;;;;;5002294;28;20782;-87
2022/05/04 12:51:55;;;;;;;4.17;3.67;;;;;;;;;;5004747;28;20422;-87
2022/05/04 12:54:21;;;;;;;4.70;3.20;;;;;;;;;;5005115;28;20497;-82
2022/05/04 12:56:48;;;;;;;10.33;3.30;;;;;;;;;;5002894;28;20401;-82
2022/05/04 12:59:15;;;;;;;3.20;2.87;;;;;;;;;;4984688;28;20414;-83
2022/05/04 13:01:41;;;;;;;4.43;2.47;;;;;;;;;;4984918;28;20534;-84
2022/05/04 13:04:07;;;;;;;2.70;2.50;;;;;;;;;;4987348;28;20418;-84
2022/05/04 13:06:33;;;;;;;2.90;2.50;;;;;;;;;;5003633;28;20463;-83
2022/05/04 13:09:00;;;;;;;2.43;2.20;;;;;;;;;;4988495;28;20434;-84
2022/05/04 13:11:26;;;;;;;2.80;2.60;;;;;;;;;;5001595;28;20415;-85
2022/05/04 13:14:01;;;;;;;1.97;1.87;;;;;;;;;;4987603;28;20426;-87
2022/05/04 13:16:27;;;;;;;2.30;2.10;;;;;;;;;;4978447;28;20477;-86
2022/05/04 13:18:53;;;;;;;2.53;1.50;;;;;;;;;;4990742;28;20427;-84
2022/05/04 13:24:18;;;;;;;3.20;1.93;;;;;;;;;;4976169;28;20399;-87
2022/05/04 13:26:44;;;;;;;1.87;1.60;;;;;;;;;;4982663;28;20456;-82
2022/05/04 13:29:11;;;;;;;2.60;1.50;;;;;;;;;;4965258;28;20943;-85
2022/05/04 13:31:37;;;;;;;1.63;1.53;;;;;;;;;;4970131;28;20546;-83
2022/05/04 13:34:05;;;;;;;1.67;1.57;;;;;;;;;;4994822;28;20443;-82
2022/05/04 13:36:31;;;;;;;2.70;2.10;;;;;;;;;;4990529;28;20447;-82
2022/05/04 13:38:57;;;;;;;3.47;2.37;;;;;;;;;;4984305;28;20528;-83
2022/05/04 13:41:25;;;;;;;1.87;1.70;;;;;;;;;;4981609;28;20560;-84
2022/05/04 13:43:51;;;;;;;1.40;1.30;;;;;;;;;;4964614;28;20454;-85
2022/05/04 13:46:18;;;;;;;3.40;1.40;;;;;;;;;;4984655;28;20614;-81
2022/05/04 13:48:44;;;;;;;2.37;1.80;;;;;;;;;;4966271;28;20418;-81
2022/05/04 13:53:56;;;;;;;2.00;1.90;;;;;;;;;;4983335;28;20407;-81
2022/05/04 13:56:22;;;;;;;2.20;1.50;;;;;;;;;;4967001;28;20450;-81
2022/05/04 13:58:48;;;;;;;1.60;1.50;;;;;;;;;;4965288;28;20498;-82
2022/05/04 14:01:14;;;;;;;1.60;1.50;;;;;;;;;;4965527;28;20451;-81
2022/05/04 14:03:40;;;;;;;2.10;1.90;;;;;;;;;;4960438;28;20439;-82
2022/05/04 14:06:06;;;;;;;2.50;1.40;;;;;;;;;;4976785;28;20477;-82
2022/05/04 14:08:32;;;;;;;1.60;1.40;;;;;;;;;;4977704;28;20440;-83
2022/05/04 14:10:59;;;;;;;1.73;1.60;;;;;;;;;;4982507;28;20426;-82
2022/05/04 14:13:27;;;;;;;1.90;1.40;;;;;;;;;;4966356;28;20447;-80
2022/05/04 14:15:58;;;;;;;1.60;1.50;;;;;;;;;;4967202;28;20470;-81
2022/05/04 14:18:25;;;;;;;4.20;1.77;;;;;;;;;;4984854;28;20471;-83
2022/05/04 14:20:51;;;;;;;2.83;1.87;;;;;;;;;;4980447;28;20534;-83
2022/05/04 14:23:18;;;;;;;1.53;1.43;;;;;;;;;;4984431;28;20519;-82
2022/05/04 14:25:44;;;;;;;5.20;1.83;;;;;;;;;;4983805;28;20480;-81
2022/05/04 14:28:10;;;;;;;2.43;2.03;;;;;;;;;;4965434;28;20434;-82
2022/05/04 14:30:37;;;;;;;2.00;1.90;;;;;;;;;;4985314;28;20438;-84
2022/05/04 14:33:03;;;;;;;1.73;1.50;;;;;;;;;;4985312;28;20423;-83
2022/05/04 14:35:29;;;;;;;1.87;1.73;;;;;;;;;;4985658;28;20424;-83
2022/05/04 14:37:55;;;;;;;3.00;1.55;;;;;;;;;;4973201;28;20430;-81
2022/05/04 14:40:23;;;;;;;3.35;1.90;;;;;;;;;;4985078;28;20196;-83
2022/05/04 14:42:51;;;;;;;2.25;1.92;;;;;;;;;;4977122;28;20187;-86
2022/05/04 14:45:17;;;;;;;3.67;1.85;;;;;;;;;;4984091;28;20175;-81
2022/05/04 14:47:43;;;;;;;2.70;2.00;;;;;;;;;;4985029;28;20691;-82
2022/05/04 14:50:09;;;;;;;4.30;2.07;;;;;;;;;;4984960;28;20446;-83
2022/05/04 14:52:35;;;;;;;2.10;1.97;;;;;;;;;;4984285;28;20447;-85
2022/05/04 14:55:01;;;;;;;3.10;2.60;;;;;;;;;;4985121;28;20439;-82
2022/05/04 14:57:27;;;;;;;2.40;1.83;;;;;;;;;;4982860;28;20431;-83
2022/05/04 14:59:53;;;;;;;2.47;2.28;;;;;;;;;;4984261;28;20184;-82
2022/05/04 15:02:19;;;;;;;6.53;2.40;;;;;;;;;;4984900;28;20197;-83
2022/05/04 15:05:05;;;;;;;3.40;2.92;;;;;;;;;;4986203;28;20450;-86
2022/05/04 15:07:32;;;;;;;2.90;2.70;;;;;;;;;;4985945;28;20199;-84